sensor_id;sensor_type;location;lat;lon;timestamp;P1;durP1;ratioP1;P2;durP2;ratioP2
16270;SDS011;8243;49.048;8.396;2023-12-20T00:00:19;6.77;;;5.57;;
16270;SDS011;8243;49.048;8.396;2023-12-20T00:02:45;6.63;;;6.00;;
16270;SDS011;8243;49.048;8.396;2023-12-20T00:05:12;6.17;;;5.57;;
16270;SDS011;8243;49.048;8.396;2023-12-20T00:07:38;8.43;;;6.20;;
16270;SDS011;8243;49.048;8.396;2023-12-20T00:10:04;8.17;;;6.23;;
16270;SDS011;8243;49.048;8.396;2023-12-20T00:12:30;7.43;;;6.40;;
16270;SDS011;8243;49.048;8.396;2023-12-20T00:14:55;6.83;;;6.13;;
16270;SDS011;8243;49.048;8.396;2023-12-20T00:17:21;7.60;;;6.47;;
16270;SDS011;8243;49.048;8.396;2023-12-20T00:19:46;7.67;;;6.47;;
16270;SDS011;8243;49.048;8.396;2023-12-20T00:22:12;7.03;;;6.30;;
16270;SDS011;8243;49.048;8.396;2023-12-20T00:24:37;7.90;;;6.40;;
16270;SDS011;8243;49.048;8.396;2023-12-20T00:27:03;6.57;;;5.87;;
16270;SDS011;8243;49.048;8.396;2023-12-20T00:29:29;7.97;;;6.30;;
16270;SDS011;8243;49.048;8.396;2023-12-20T00:31:54;8.07;;;6.00;;
16270;SDS011;8243;49.048;8.396;2023-12-20T00:34:20;7.10;;;6.37;;
16270;SDS011;8243;49.048;8.396;2023-12-20T00:36:46;7.87;;;6.70;;
16270;SDS011;8243;49.048;8.396;2023-12-20T00:39:12;7.57;;;6.47;;
16270;SDS011;8243;49.048;8.396;2023-12-20T00:41:37;9.03;;;6.40;;
16270;SDS011;8243;49.048;8.396;2023-12-20T00:44:03;8.60;;;6.87;;
16270;SDS011;8243;49.048;8.396;2023-12-20T00:46:29;7.33;;;6.63;;
16270;SDS011;8243;49.048;8.396;2023-12-20T00:48:54;8.10;;;5.80;;
16270;SDS011;8243;49.048;8.396;2023-12-20T00:51:20;7.60;;;6.10;;
16270;SDS011;8243;49.048;8.396;2023-12-20T00:53:47;7.17;;;5.90;;
16270;SDS011;8243;49.048;8.396;2023-12-20T00:56:14;6.60;;;6.00;;
16270;SDS011;8243;49.048;8.396;2023-12-20T00:58:39;7.97;;;6.53;;
16270;SDS011;8243;49.048;8.396;2023-12-20T01:01:05;6.63;;;5.90;;
16270;SDS011;8243;49.048;8.396;2023-12-20T01:03:31;7.37;;;6.50;;
16270;SDS011;8243;49.048;8.396;2023-12-20T01:05:56;6.73;;;5.90;;
16270;SDS011;8243;49.048;8.396;2023-12-20T01:08:22;7.00;;;6.20;;
16270;SDS011;8243;49.048;8.396;2023-12-20T01:10:48;8.13;;;6.63;;
16270;SDS011;8243;49.048;8.396;2023-12-20T01:13:13;9.27;;;6.90;;
16270;SDS011;8243;49.048;8.396;2023-12-20T01:15:39;8.07;;;6.60;;
16270;SDS011;8243;49.048;8.396;2023-12-20T01:18:04;7.60;;;6.90;;
16270;SDS011;8243;49.048;8.396;2023-12-20T01:20:30;7.87;;;7.07;;
16270;SDS011;8243;49.048;8.396;2023-12-20T01:22:56;7.50;;;6.60;;
16270;SDS011;8243;49.048;8.396;2023-12-20T01:25:21;6.60;;;5.90;;
16270;SDS011;8243;49.048;8.396;2023-12-20T01:27:47;7.43;;;6.37;;
16270;SDS011;8243;49.048;8.396;2023-12-20T01:30:13;7.07;;;6.13;;
16270;SDS011;8243;49.048;8.396;2023-12-20T01:32:40;7.60;;;6.47;;
16270;SDS011;8243;49.048;8.396;2023-12-20T01:35:05;6.90;;;6.20;;
16270;SDS011;8243;49.048;8.396;2023-12-20T01:37:31;6.70;;;6.10;;
16270;SDS011;8243;49.048;8.396;2023-12-20T01:39:57;8.07;;;6.30;;
16270;SDS011;8243;49.048;8.396;2023-12-20T01:42:23;7.43;;;6.73;;
16270;SDS011;8243;49.048;8.396;2023-12-20T01:44:49;7.60;;;6.77;;
16270;SDS011;8243;49.048;8.396;2023-12-20T01:47:14;8.30;;;6.47;;
16270;SDS011;8243;49.048;8.396;2023-12-20T01:49:40;7.33;;;6.43;;
16270;SDS011;8243;49.048;8.396;2023-12-20T01:52:06;7.40;;;6.60;;
16270;SDS011;8243;49.048;8.396;2023-12-20T01:54:33;7.70;;;6.90;;
16270;SDS011;8243;49.048;8.396;2023-12-20T01:57:00;8.53;;;7.17;;
16270;SDS011;8243;49.048;8.396;2023-12-20T01:59:26;7.00;;;6.30;;
16270;SDS011;8243;49.048;8.396;2023-12-20T02:01:53;10.00;;;7.90;;
16270;SDS011;8243;49.048;8.396;2023-12-20T02:04:19;9.27;;;7.33;;
16270;SDS011;8243;49.048;8.396;2023-12-20T02:06:46;9.17;;;7.70;;
16270;SDS011;8243;49.048;8.396;2023-12-20T02:09:11;8.27;;;6.77;;
16270;SDS011;8243;49.048;8.396;2023-12-20T02:11:37;7.90;;;6.30;;
16270;SDS011;8243;49.048;8.396;2023-12-20T02:14:03;6.90;;;6.20;;
16270;SDS011;8243;49.048;8.396;2023-12-20T02:16:29;7.50;;;6.70;;
16270;SDS011;8243;49.048;8.396;2023-12-20T02:18:55;7.83;;;5.93;;
16270;SDS011;8243;49.048;8.396;2023-12-20T02:21:32;8.20;;;6.60;;
16270;SDS011;8243;49.048;8.396;2023-12-20T02:23:59;9.00;;;6.40;;
16270;SDS011;8243;49.048;8.396;2023-12-20T02:26:25;8.07;;;7.20;;
16270;SDS011;8243;49.048;8.396;2023-12-20T02:28:51;8.20;;;7.27;;
16270;SDS011;8243;49.048;8.396;2023-12-20T02:31:16;7.67;;;6.53;;
16270;SDS011;8243;49.048;8.396;2023-12-20T02:33:48;7.93;;;6.77;;
16270;SDS011;8243;49.048;8.396;2023-12-20T02:36:14;9.00;;;6.73;;
16270;SDS011;8243;49.048;8.396;2023-12-20T02:38:40;7.97;;;6.93;;
16270;SDS011;8243;49.048;8.396;2023-12-20T02:41:05;7.97;;;7.17;;
16270;SDS011;8243;49.048;8.396;2023-12-20T02:43:31;7.47;;;6.73;;
16270;SDS011;8243;49.048;8.396;2023-12-20T02:45:56;7.97;;;6.67;;
16270;SDS011;8243;49.048;8.396;2023-12-20T02:48:22;7.60;;;6.70;;
16270;SDS011;8243;49.048;8.396;2023-12-20T02:50:47;7.33;;;6.63;;
16270;SDS011;8243;49.048;8.396;2023-12-20T02:53:14;6.77;;;6.13;;
16270;SDS011;8243;49.048;8.396;2023-12-20T02:55:39;8.83;;;6.97;;
16270;SDS011;8243;49.048;8.396;2023-12-20T02:58:05;7.70;;;6.90;;
16270;SDS011;8243;49.048;8.396;2023-12-20T03:00:31;7.40;;;6.10;;
16270;SDS011;8243;49.048;8.396;2023-12-20T03:02:56;7.37;;;6.30;;
16270;SDS011;8243;49.048;8.396;2023-12-20T03:05:22;8.13;;;6.63;;
16270;SDS011;8243;49.048;8.396;2023-12-20T03:07:47;6.80;;;6.10;;
16270;SDS011;8243;49.048;8.396;2023-12-20T03:10:13;7.00;;;6.30;;
16270;SDS011;8243;49.048;8.396;2023-12-20T03:12:39;7.40;;;6.63;;
16270;SDS011;8243;49.048;8.396;2023-12-20T03:15:05;7.07;;;6.37;;
16270;SDS011;8243;49.048;8.396;2023-12-20T03:17:31;6.30;;;5.70;;
16270;SDS011;8243;49.048;8.396;2023-12-20T03:19:57;7.03;;;6.33;;
16270;SDS011;8243;49.048;8.396;2023-12-20T03:22:22;7.10;;;6.40;;
16270;SDS011;8243;49.048;8.396;2023-12-20T03:24:48;7.37;;;5.53;;
16270;SDS011;8243;49.048;8.396;2023-12-20T03:27:13;6.00;;;5.40;;
16270;SDS011;8243;49.048;8.396;2023-12-20T03:29:39;6.97;;;6.03;;
16270;SDS011;8243;49.048;8.396;2023-12-20T03:32:05;7.03;;;5.83;;
16270;SDS011;8243;49.048;8.396;2023-12-20T03:34:30;7.03;;;6.17;;
16270;SDS011;8243;49.048;8.396;2023-12-20T03:36:56;6.90;;;6.20;;
16270;SDS011;8243;49.048;8.396;2023-12-20T03:39:21;7.10;;;6.00;;
16270;SDS011;8243;49.048;8.396;2023-12-20T03:41:47;6.67;;;5.83;;
16270;SDS011;8243;49.048;8.396;2023-12-20T03:44:12;6.80;;;6.17;;
16270;SDS011;8243;49.048;8.396;2023-12-20T03:46:38;7.00;;;6.10;;
16270;SDS011;8243;49.048;8.396;2023-12-20T03:49:04;6.97;;;6.27;;
16270;SDS011;8243;49.048;8.396;2023-12-20T03:51:29;6.37;;;5.77;;
16270;SDS011;8243;49.048;8.396;2023-12-20T03:53:55;6.80;;;6.10;;
16270;SDS011;8243;49.048;8.396;2023-12-20T03:56:20;6.60;;;5.73;;
16270;SDS011;8243;49.048;8.396;2023-12-20T03:58:46;6.63;;;6.03;;
16270;SDS011;8243;49.048;8.396;2023-12-20T04:01:11;6.20;;;5.60;;
16270;SDS011;8243;49.048;8.396;2023-12-20T04:03:37;7.73;;;6.07;;
16270;SDS011;8243;49.048;8.396;2023-12-20T04:06:03;6.10;;;5.50;;
16270;SDS011;8243;49.048;8.396;2023-12-20T04:08:29;5.83;;;5.17;;
16270;SDS011;8243;49.048;8.396;2023-12-20T04:10:54;6.93;;;5.53;;
16270;SDS011;8243;49.048;8.396;2023-12-20T04:13:20;6.27;;;5.67;;
16270;SDS011;8243;49.048;8.396;2023-12-20T04:15:45;7.97;;;5.80;;
16270;SDS011;8243;49.048;8.396;2023-12-20T04:18:11;6.43;;;5.20;;
16270;SDS011;8243;49.048;8.396;2023-12-20T04:20:37;5.73;;;5.23;;
16270;SDS011;8243;49.048;8.396;2023-12-20T04:23:03;5.70;;;5.17;;
16270;SDS011;8243;49.048;8.396;2023-12-20T04:25:28;5.83;;;5.30;;
16270;SDS011;8243;49.048;8.396;2023-12-20T04:27:54;5.00;;;4.50;;
16270;SDS011;8243;49.048;8.396;2023-12-20T04:30:19;5.73;;;4.90;;
16270;SDS011;8243;49.048;8.396;2023-12-20T04:32:45;5.63;;;4.90;;
16270;SDS011;8243;49.048;8.396;2023-12-20T04:35:10;5.13;;;4.63;;
16270;SDS011;8243;49.048;8.396;2023-12-20T04:37:36;4.60;;;4.17;;
16270;SDS011;8243;49.048;8.396;2023-12-20T04:40:02;5.20;;;4.70;;
16270;SDS011;8243;49.048;8.396;2023-12-20T04:42:27;4.67;;;4.27;;
16270;SDS011;8243;49.048;8.396;2023-12-20T04:44:53;5.27;;;4.50;;
16270;SDS011;8243;49.048;8.396;2023-12-20T04:47:18;4.70;;;4.17;;
16270;SDS011;8243;49.048;8.396;2023-12-20T04:49:44;6.17;;;4.77;;
16270;SDS011;8243;49.048;8.396;2023-12-20T04:52:09;5.97;;;4.23;;
16270;SDS011;8243;49.048;8.396;2023-12-20T04:54:35;4.37;;;3.87;;
16270;SDS011;8243;49.048;8.396;2023-12-20T04:57:00;4.70;;;4.30;;
16270;SDS011;8243;49.048;8.396;2023-12-20T04:59:26;5.20;;;4.67;;
16270;SDS011;8243;49.048;8.396;2023-12-20T05:01:51;5.00;;;4.47;;
16270;SDS011;8243;49.048;8.396;2023-12-20T05:04:17;6.93;;;4.83;;
16270;SDS011;8243;49.048;8.396;2023-12-20T05:06:43;4.70;;;4.30;;
16270;SDS011;8243;49.048;8.396;2023-12-20T05:09:08;4.77;;;4.37;;
16270;SDS011;8243;49.048;8.396;2023-12-20T05:11:34;5.30;;;4.67;;
16270;SDS011;8243;49.048;8.396;2023-12-20T05:13:59;5.17;;;4.53;;
16270;SDS011;8243;49.048;8.396;2023-12-20T05:16:25;5.70;;;5.20;;
16270;SDS011;8243;49.048;8.396;2023-12-20T05:18:50;4.83;;;4.33;;
16270;SDS011;8243;49.048;8.396;2023-12-20T05:21:17;6.50;;;5.30;;
16270;SDS011;8243;49.048;8.396;2023-12-20T05:23:43;6.70;;;6.00;;
16270;SDS011;8243;49.048;8.396;2023-12-20T05:26:08;7.50;;;6.03;;
16270;SDS011;8243;49.048;8.396;2023-12-20T05:28:34;6.10;;;5.50;;
16270;SDS011;8243;49.048;8.396;2023-12-20T05:30:59;7.50;;;5.77;;
16270;SDS011;8243;49.048;8.396;2023-12-20T05:33:25;6.87;;;6.00;;
16270;SDS011;8243;49.048;8.396;2023-12-20T05:35:51;10.77;;;7.73;;
16270;SDS011;8243;49.048;8.396;2023-12-20T05:38:16;9.07;;;7.40;;
16270;SDS011;8243;49.048;8.396;2023-12-20T05:40:42;9.07;;;7.93;;
16270;SDS011;8243;49.048;8.396;2023-12-20T05:43:07;7.40;;;6.20;;
16270;SDS011;8243;49.048;8.396;2023-12-20T05:45:33;7.60;;;6.40;;
16270;SDS011;8243;49.048;8.396;2023-12-20T05:47:59;8.60;;;6.10;;
16270;SDS011;8243;49.048;8.396;2023-12-20T05:50:25;6.37;;;5.43;;
16270;SDS011;8243;49.048;8.396;2023-12-20T05:52:50;11.17;;;5.83;;
16270;SDS011;8243;49.048;8.396;2023-12-20T05:55:16;5.97;;;5.40;;
16270;SDS011;8243;49.048;8.396;2023-12-20T05:57:41;5.93;;;5.43;;
16270;SDS011;8243;49.048;8.396;2023-12-20T06:00:08;6.30;;;5.70;;
16270;SDS011;8243;49.048;8.396;2023-12-20T06:02:34;7.03;;;5.83;;
16270;SDS011;8243;49.048;8.396;2023-12-20T06:05:01;6.27;;;5.67;;
16270;SDS011;8243;49.048;8.396;2023-12-20T06:07:29;5.77;;;4.80;;
16270;SDS011;8243;49.048;8.396;2023-12-20T06:09:54;5.77;;;5.27;;
16270;SDS011;8243;49.048;8.396;2023-12-20T06:12:20;7.57;;;5.70;;
16270;SDS011;8243;49.048;8.396;2023-12-20T06:14:45;7.37;;;6.47;;
16270;SDS011;8243;49.048;8.396;2023-12-20T06:17:11;5.63;;;5.13;;
16270;SDS011;8243;49.048;8.396;2023-12-20T06:19:37;6.73;;;5.30;;
16270;SDS011;8243;49.048;8.396;2023-12-20T06:22:02;6.50;;;5.90;;
16270;SDS011;8243;49.048;8.396;2023-12-20T06:24:28;7.07;;;6.37;;
16270;SDS011;8243;49.048;8.396;2023-12-20T06:26:54;8.03;;;6.97;;
16270;SDS011;8243;49.048;8.396;2023-12-20T06:29:20;7.70;;;6.80;;
16270;SDS011;8243;49.048;8.396;2023-12-20T06:31:46;5.90;;;5.30;;
16270;SDS011;8243;49.048;8.396;2023-12-20T06:34:11;8.13;;;5.63;;
16270;SDS011;8243;49.048;8.396;2023-12-20T06:36:37;6.30;;;5.70;;
16270;SDS011;8243;49.048;8.396;2023-12-20T06:39:02;6.03;;;5.43;;
16270;SDS011;8243;49.048;8.396;2023-12-20T06:41:29;7.57;;;6.43;;
16270;SDS011;8243;49.048;8.396;2023-12-20T06:43:55;7.70;;;5.80;;
16270;SDS011;8243;49.048;8.396;2023-12-20T06:46:21;7.63;;;6.80;;
16270;SDS011;8243;49.048;8.396;2023-12-20T06:48:46;7.77;;;6.70;;
16270;SDS011;8243;49.048;8.396;2023-12-20T06:51:15;6.37;;;5.77;;
16270;SDS011;8243;49.048;8.396;2023-12-20T06:53:42;5.50;;;5.00;;
16270;SDS011;8243;49.048;8.396;2023-12-20T06:56:10;5.00;;;4.60;;
16270;SDS011;8243;49.048;8.396;2023-12-20T06:58:36;5.97;;;5.47;;
16270;SDS011;8243;49.048;8.396;2023-12-20T07:01:02;5.43;;;4.93;;
16270;SDS011;8243;49.048;8.396;2023-12-20T07:03:29;6.30;;;5.70;;
16270;SDS011;8243;49.048;8.396;2023-12-20T07:05:54;6.67;;;6.03;;
16270;SDS011;8243;49.048;8.396;2023-12-20T07:08:20;5.90;;;5.30;;
16270;SDS011;8243;49.048;8.396;2023-12-20T07:10:46;6.87;;;4.83;;
16270;SDS011;8243;49.048;8.396;2023-12-20T07:13:11;8.43;;;6.30;;
16270;SDS011;8243;49.048;8.396;2023-12-20T07:15:37;5.90;;;5.30;;
16270;SDS011;8243;49.048;8.396;2023-12-20T07:18:03;5.60;;;5.00;;
16270;SDS011;8243;49.048;8.396;2023-12-20T07:20:30;5.53;;;5.03;;
16270;SDS011;8243;49.048;8.396;2023-12-20T07:22:55;5.53;;;5.03;;
16270;SDS011;8243;49.048;8.396;2023-12-20T07:25:21;5.97;;;5.10;;
16270;SDS011;8243;49.048;8.396;2023-12-20T07:27:46;6.13;;;5.40;;
16270;SDS011;8243;49.048;8.396;2023-12-20T07:30:12;6.30;;;5.70;;
16270;SDS011;8243;49.048;8.396;2023-12-20T07:32:38;6.60;;;4.70;;
16270;SDS011;8243;49.048;8.396;2023-12-20T07:35:03;5.87;;;5.23;;
16270;SDS011;8243;49.048;8.396;2023-12-20T07:37:30;6.33;;;5.30;;
16270;SDS011;8243;49.048;8.396;2023-12-20T07:39:56;8.20;;;6.13;;
16270;SDS011;8243;49.048;8.396;2023-12-20T07:42:21;7.33;;;6.60;;
16270;SDS011;8243;49.048;8.396;2023-12-20T07:44:47;6.70;;;6.10;;
16270;SDS011;8243;49.048;8.396;2023-12-20T07:47:13;6.30;;;5.70;;
16270;SDS011;8243;49.048;8.396;2023-12-20T07:49:42;5.87;;;5.27;;
16270;SDS011;8243;49.048;8.396;2023-12-20T07:52:07;5.53;;;4.93;;
16270;SDS011;8243;49.048;8.396;2023-12-20T07:54:33;5.57;;;4.93;;
16270;SDS011;8243;49.048;8.396;2023-12-20T07:56:59;6.27;;;5.17;;
16270;SDS011;8243;49.048;8.396;2023-12-20T07:59:26;5.57;;;5.07;;
16270;SDS011;8243;49.048;8.396;2023-12-20T08:01:52;7.07;;;5.90;;
16270;SDS011;8243;49.048;8.396;2023-12-20T08:04:18;6.87;;;6.20;;
16270;SDS011;8243;49.048;8.396;2023-12-20T08:06:44;6.27;;;5.67;;
16270;SDS011;8243;49.048;8.396;2023-12-20T08:09:09;5.70;;;5.20;;
16270;SDS011;8243;49.048;8.396;2023-12-20T08:11:36;5.47;;;4.80;;
16270;SDS011;8243;49.048;8.396;2023-12-20T08:14:02;6.10;;;5.20;;
16270;SDS011;8243;49.048;8.396;2023-12-20T08:16:27;5.53;;;5.03;;
16270;SDS011;8243;49.048;8.396;2023-12-20T08:18:53;5.83;;;4.30;;
16270;SDS011;8243;49.048;8.396;2023-12-20T08:21:19;4.87;;;4.37;;
16270;SDS011;8243;49.048;8.396;2023-12-20T08:23:47;5.47;;;4.50;;
16270;SDS011;8243;49.048;8.396;2023-12-20T08:26:13;5.37;;;4.43;;
16270;SDS011;8243;49.048;8.396;2023-12-20T08:28:38;5.33;;;4.00;;
16270;SDS011;8243;49.048;8.396;2023-12-20T08:31:04;5.00;;;4.40;;
16270;SDS011;8243;49.048;8.396;2023-12-20T08:33:30;6.43;;;5.77;;
16270;SDS011;8243;49.048;8.396;2023-12-20T08:35:55;4.77;;;4.00;;
16270;SDS011;8243;49.048;8.396;2023-12-20T08:38:21;6.10;;;4.00;;
16270;SDS011;8243;49.048;8.396;2023-12-20T08:40:46;8.60;;;5.50;;
16270;SDS011;8243;49.048;8.396;2023-12-20T08:43:13;4.20;;;3.70;;
16270;SDS011;8243;49.048;8.396;2023-12-20T08:45:39;5.20;;;3.43;;
16270;SDS011;8243;49.048;8.396;2023-12-20T08:48:05;3.83;;;2.80;;
16270;SDS011;8243;49.048;8.396;2023-12-20T08:50:31;3.13;;;2.70;;
16270;SDS011;8243;49.048;8.396;2023-12-20T08:52:57;5.80;;;2.67;;
16270;SDS011;8243;49.048;8.396;2023-12-20T08:55:23;3.93;;;2.23;;
16270;SDS011;8243;49.048;8.396;2023-12-20T08:57:48;5.00;;;2.63;;
16270;SDS011;8243;49.048;8.396;2023-12-20T09:00:15;2.87;;;2.60;;
16270;SDS011;8243;49.048;8.396;2023-12-20T09:02:41;2.93;;;2.37;;
16270;SDS011;8243;49.048;8.396;2023-12-20T09:05:07;4.60;;;2.70;;
16270;SDS011;8243;49.048;8.396;2023-12-20T09:07:32;4.63;;;2.23;;
16270;SDS011;8243;49.048;8.396;2023-12-20T09:09:58;2.60;;;1.97;;
16270;SDS011;8243;49.048;8.396;2023-12-20T09:12:24;3.13;;;2.40;;
16270;SDS011;8243;49.048;8.396;2023-12-20T09:14:50;2.53;;;2.10;;
16270;SDS011;8243;49.048;8.396;2023-12-20T09:17:17;5.50;;;2.37;;
16270;SDS011;8243;49.048;8.396;2023-12-20T09:19:43;4.10;;;2.30;;
16270;SDS011;8243;49.048;8.396;2023-12-20T09:22:23;5.57;;;3.20;;
16270;SDS011;8243;49.048;8.396;2023-12-20T09:24:54;4.77;;;2.10;;
16270;SDS011;8243;49.048;8.396;2023-12-20T09:27:20;5.17;;;1.93;;
16270;SDS011;8243;49.048;8.396;2023-12-20T09:29:46;6.03;;;2.17;;
16270;SDS011;8243;49.048;8.396;2023-12-20T09:32:13;3.53;;;1.60;;
16270;SDS011;8243;49.048;8.396;2023-12-20T09:34:45;2.80;;;1.70;;
16270;SDS011;8243;49.048;8.396;2023-12-20T09:37:12;3.30;;;1.80;;
16270;SDS011;8243;49.048;8.396;2023-12-20T09:39:38;4.33;;;1.70;;
16270;SDS011;8243;49.048;8.396;2023-12-20T09:42:04;6.10;;;1.97;;
16270;SDS011;8243;49.048;8.396;2023-12-20T09:44:31;2.37;;;1.40;;
16270;SDS011;8243;49.048;8.396;2023-12-20T09:47:01;3.70;;;2.07;;
16270;SDS011;8243;49.048;8.396;2023-12-20T09:49:28;5.07;;;1.87;;
16270;SDS011;8243;49.048;8.396;2023-12-20T09:51:55;3.67;;;1.97;;
16270;SDS011;8243;49.048;8.396;2023-12-20T09:54:22;2.63;;;1.70;;
16270;SDS011;8243;49.048;8.396;2023-12-20T09:56:55;3.67;;;2.00;;
16270;SDS011;8243;49.048;8.396;2023-12-20T09:59:21;3.50;;;1.70;;
16270;SDS011;8243;49.048;8.396;2023-12-20T10:01:47;5.93;;;2.23;;
16270;SDS011;8243;49.048;8.396;2023-12-20T10:04:13;5.97;;;1.90;;
16270;SDS011;8243;49.048;8.396;2023-12-20T10:09:06;6.33;;;1.90;;
16270;SDS011;8243;49.048;8.396;2023-12-20T10:11:32;5.90;;;2.40;;
16270;SDS011;8243;49.048;8.396;2023-12-20T10:14:02;5.30;;;2.30;;
16270;SDS011;8243;49.048;8.396;2023-12-20T10:16:28;5.43;;;1.93;;
16270;SDS011;8243;49.048;8.396;2023-12-20T10:18:54;5.77;;;2.40;;
16270;SDS011;8243;49.048;8.396;2023-12-20T10:21:20;7.33;;;2.50;;
16270;SDS011;8243;49.048;8.396;2023-12-20T10:23:47;4.37;;;2.00;;
16270;SDS011;8243;49.048;8.396;2023-12-20T10:26:26;4.70;;;2.20;;
16270;SDS011;8243;49.048;8.396;2023-12-20T10:28:55;5.13;;;2.10;;
16270;SDS011;8243;49.048;8.396;2023-12-20T10:31:28;3.43;;;2.57;;
16270;SDS011;8243;49.048;8.396;2023-12-20T10:33:58;6.20;;;2.10;;
16270;SDS011;8243;49.048;8.396;2023-12-20T10:36:42;6.13;;;3.17;;
16270;SDS011;8243;49.048;8.396;2023-12-20T10:39:07;6.43;;;2.50;;
16270;SDS011;8243;49.048;8.396;2023-12-20T10:41:36;5.67;;;2.20;;
16270;SDS011;8243;49.048;8.396;2023-12-20T10:44:06;4.57;;;2.03;;
16270;SDS011;8243;49.048;8.396;2023-12-20T10:46:33;7.80;;;2.50;;
16270;SDS011;8243;49.048;8.396;2023-12-20T10:48:59;5.43;;;2.20;;
16270;SDS011;8243;49.048;8.396;2023-12-20T10:51:29;4.80;;;2.40;;
16270;SDS011;8243;49.048;8.396;2023-12-20T10:53:56;4.00;;;2.30;;
16270;SDS011;8243;49.048;8.396;2023-12-20T10:56:22;9.17;;;2.80;;
16270;SDS011;8243;49.048;8.396;2023-12-20T10:58:51;6.50;;;2.43;;
16270;SDS011;8243;49.048;8.396;2023-12-20T11:01:17;7.27;;;2.40;;
16270;SDS011;8243;49.048;8.396;2023-12-20T11:03:50;4.57;;;2.13;;
16270;SDS011;8243;49.048;8.396;2023-12-20T11:11:59;6.87;;;2.30;;
16270;SDS011;8243;49.048;8.396;2023-12-20T11:14:38;6.27;;;2.43;;
16270;SDS011;8243;49.048;8.396;2023-12-20T11:17:11;6.60;;;2.50;;
16270;SDS011;8243;49.048;8.396;2023-12-20T11:22:22;8.43;;;2.70;;
16270;SDS011;8243;49.048;8.396;2023-12-20T11:24:52;6.47;;;2.67;;
16270;SDS011;8243;49.048;8.396;2023-12-20T11:27:21;8.77;;;2.30;;
16270;SDS011;8243;49.048;8.396;2023-12-20T11:29:52;8.07;;;2.40;;
16270;SDS011;8243;49.048;8.396;2023-12-20T11:34:56;6.17;;;2.30;;
16270;SDS011;8243;49.048;8.396;2023-12-20T11:37:45;5.77;;;2.33;;
16270;SDS011;8243;49.048;8.396;2023-12-20T11:40:13;6.97;;;2.67;;
16270;SDS011;8243;49.048;8.396;2023-12-20T11:42:40;5.03;;;2.27;;
16270;SDS011;8243;49.048;8.396;2023-12-20T11:45:08;6.43;;;2.53;;
16270;SDS011;8243;49.048;8.396;2023-12-20T11:47:42;5.23;;;2.43;;
16270;SDS011;8243;49.048;8.396;2023-12-20T11:50:10;7.93;;;2.53;;
16270;SDS011;8243;49.048;8.396;2023-12-20T11:52:36;8.50;;;2.80;;
16270;SDS011;8243;49.048;8.396;2023-12-20T11:55:01;8.10;;;2.60;;
16270;SDS011;8243;49.048;8.396;2023-12-20T11:57:28;6.53;;;2.57;;
16270;SDS011;8243;49.048;8.396;2023-12-20T11:59:54;7.83;;;2.67;;
16270;SDS011;8243;49.048;8.396;2023-12-20T12:02:21;7.10;;;2.70;;
16270;SDS011;8243;49.048;8.396;2023-12-20T12:04:48;8.43;;;2.70;;
16270;SDS011;8243;49.048;8.396;2023-12-20T12:07:13;7.23;;;2.70;;
16270;SDS011;8243;49.048;8.396;2023-12-20T12:09:39;7.07;;;3.80;;
16270;SDS011;8243;49.048;8.396;2023-12-20T12:12:07;6.83;;;2.67;;
16270;SDS011;8243;49.048;8.396;2023-12-20T12:14:33;5.47;;;2.63;;
16270;SDS011;8243;49.048;8.396;2023-12-20T12:17:00;8.10;;;3.23;;
16270;SDS011;8243;49.048;8.396;2023-12-20T12:19:26;8.60;;;2.80;;
16270;SDS011;8243;49.048;8.396;2023-12-20T12:22:05;7.23;;;2.67;;
16270;SDS011;8243;49.048;8.396;2023-12-20T12:24:37;5.97;;;2.50;;
16270;SDS011;8243;49.048;8.396;2023-12-20T12:27:05;9.60;;;3.07;;
16270;SDS011;8243;49.048;8.396;2023-12-20T12:29:32;9.57;;;2.80;;
16270;SDS011;8243;49.048;8.396;2023-12-20T12:31:58;7.93;;;3.37;;
16270;SDS011;8243;49.048;8.396;2023-12-20T12:34:24;6.50;;;2.67;;
16270;SDS011;8243;49.048;8.396;2023-12-20T12:36:52;8.03;;;3.03;;
16270;SDS011;8243;49.048;8.396;2023-12-20T12:39:18;7.17;;;2.50;;
16270;SDS011;8243;49.048;8.396;2023-12-20T12:41:44;8.10;;;2.70;;
16270;SDS011;8243;49.048;8.396;2023-12-20T12:44:09;7.63;;;2.37;;
16270;SDS011;8243;49.048;8.396;2023-12-20T12:46:35;7.90;;;2.53;;
16270;SDS011;8243;49.048;8.396;2023-12-20T12:49:00;6.37;;;2.33;;
16270;SDS011;8243;49.048;8.396;2023-12-20T12:51:26;7.30;;;2.53;;
16270;SDS011;8243;49.048;8.396;2023-12-20T12:53:52;7.17;;;2.17;;
16270;SDS011;8243;49.048;8.396;2023-12-20T12:56:18;6.37;;;2.20;;
16270;SDS011;8243;49.048;8.396;2023-12-20T12:58:44;6.80;;;2.20;;
16270;SDS011;8243;49.048;8.396;2023-12-20T13:01:11;6.67;;;2.73;;
16270;SDS011;8243;49.048;8.396;2023-12-20T13:03:37;8.83;;;2.57;;
16270;SDS011;8243;49.048;8.396;2023-12-20T13:06:02;9.40;;;2.20;;
16270;SDS011;8243;49.048;8.396;2023-12-20T13:08:30;4.50;;;2.43;;
16270;SDS011;8243;49.048;8.396;2023-12-20T13:10:56;5.50;;;2.50;;
16270;SDS011;8243;49.048;8.396;2023-12-20T13:13:25;8.87;;;2.50;;
16270;SDS011;8243;49.048;8.396;2023-12-20T13:15:54;6.73;;;2.50;;
16270;SDS011;8243;49.048;8.396;2023-12-20T13:18:20;6.00;;;2.20;;
16270;SDS011;8243;49.048;8.396;2023-12-20T13:20:46;9.27;;;2.77;;
16270;SDS011;8243;49.048;8.396;2023-12-20T13:23:12;9.27;;;3.20;;
16270;SDS011;8243;49.048;8.396;2023-12-20T13:25:38;9.67;;;3.60;;
16270;SDS011;8243;49.048;8.396;2023-12-20T13:28:04;12.80;;;6.80;;
16270;SDS011;8243;49.048;8.396;2023-12-20T13:30:30;5.30;;;3.07;;
16270;SDS011;8243;49.048;8.396;2023-12-20T13:32:55;6.37;;;2.47;;
16270;SDS011;8243;49.048;8.396;2023-12-20T13:35:22;7.80;;;2.50;;
16270;SDS011;8243;49.048;8.396;2023-12-20T13:37:48;6.37;;;2.90;;
16270;SDS011;8243;49.048;8.396;2023-12-20T13:40:13;8.13;;;3.10;;
16270;SDS011;8243;49.048;8.396;2023-12-20T13:42:39;7.17;;;2.30;;
16270;SDS011;8243;49.048;8.396;2023-12-20T13:45:05;9.67;;;3.47;;
16270;SDS011;8243;49.048;8.396;2023-12-20T13:47:32;7.40;;;2.80;;
16270;SDS011;8243;49.048;8.396;2023-12-20T13:49:57;10.43;;;3.40;;
16270;SDS011;8243;49.048;8.396;2023-12-20T13:52:23;8.20;;;3.03;;
16270;SDS011;8243;49.048;8.396;2023-12-20T13:54:48;9.27;;;3.20;;
16270;SDS011;8243;49.048;8.396;2023-12-20T13:57:14;9.37;;;3.90;;
16270;SDS011;8243;49.048;8.396;2023-12-20T13:59:41;9.30;;;2.70;;
16270;SDS011;8243;49.048;8.396;2023-12-20T14:02:06;6.97;;;2.70;;
16270;SDS011;8243;49.048;8.396;2023-12-20T14:04:32;12.63;;;3.60;;
16270;SDS011;8243;49.048;8.396;2023-12-20T14:06:58;13.40;;;4.00;;
16270;SDS011;8243;49.048;8.396;2023-12-20T14:09:23;8.33;;;3.30;;
16270;SDS011;8243;49.048;8.396;2023-12-20T14:11:49;11.77;;;4.37;;
16270;SDS011;8243;49.048;8.396;2023-12-20T14:14:15;8.03;;;3.27;;
16270;SDS011;8243;49.048;8.396;2023-12-20T14:16:40;6.33;;;2.47;;
16270;SDS011;8243;49.048;8.396;2023-12-20T14:19:09;7.60;;;2.40;;
16270;SDS011;8243;49.048;8.396;2023-12-20T14:21:35;7.87;;;2.67;;
16270;SDS011;8243;49.048;8.396;2023-12-20T14:24:01;7.33;;;2.60;;
16270;SDS011;8243;49.048;8.396;2023-12-20T14:26:27;7.97;;;2.30;;
16270;SDS011;8243;49.048;8.396;2023-12-20T14:28:53;9.37;;;3.03;;
16270;SDS011;8243;49.048;8.396;2023-12-20T14:31:19;8.17;;;2.70;;
16270;SDS011;8243;49.048;8.396;2023-12-20T14:33:44;8.13;;;2.70;;
16270;SDS011;8243;49.048;8.396;2023-12-20T14:36:11;7.30;;;2.90;;
16270;SDS011;8243;49.048;8.396;2023-12-20T14:38:36;7.80;;;2.70;;
16270;SDS011;8243;49.048;8.396;2023-12-20T14:41:02;6.63;;;2.47;;
16270;SDS011;8243;49.048;8.396;2023-12-20T14:43:29;5.87;;;2.70;;
16270;SDS011;8243;49.048;8.396;2023-12-20T14:45:54;9.80;;;2.73;;
16270;SDS011;8243;49.048;8.396;2023-12-20T14:48:20;12.07;;;2.97;;
16270;SDS011;8243;49.048;8.396;2023-12-20T14:50:47;6.30;;;2.70;;
16270;SDS011;8243;49.048;8.396;2023-12-20T14:53:14;7.37;;;2.60;;
16270;SDS011;8243;49.048;8.396;2023-12-20T14:55:41;7.80;;;2.97;;
16270;SDS011;8243;49.048;8.396;2023-12-20T14:58:07;7.47;;;2.67;;
16270;SDS011;8243;49.048;8.396;2023-12-20T15:00:33;9.20;;;2.73;;
16270;SDS011;8243;49.048;8.396;2023-12-20T15:02:58;6.77;;;2.70;;
16270;SDS011;8243;49.048;8.396;2023-12-20T15:05:24;6.67;;;2.30;;
16270;SDS011;8243;49.048;8.396;2023-12-20T15:07:50;9.13;;;2.27;;